Terminal Aerodrome Forecast
Issued by NWS

Home | Current Version | Previous Version | Text Only | Print | Product List | Glossary On
Versions: 1 2 3 4 5 6 7 8 9 10 11 12 13 14 15
514
FTAK31 PAJN 232328
TAFAPG
TAF
PAPG 232328Z 2400/2424 08004KT 6SM -RA BR FEW005 OVC018
     FM240500 12007KT 3SM -RA BR BKN005 OVC010
     FM240900 00000KT 2SM -RA BR OVC003
      AMD LTD TO CLD VIS AND WIND 2406/2415=

USA.gov is the U.S. government's official web portal to all federal, state and local government web resources and services.